createdAt,value
2023-02-09T00:01:09.554Z,98710.34
2023-02-09T00:03:59.613Z,98711.34
2023-02-09T00:06:48.953Z,98709.94
2023-02-09T00:09:30.775Z,98702.38
2023-02-09T00:12:38.495Z,98706.28
2023-02-09T00:15:27.520Z,98707.06
2023-02-09T00:18:09.884Z,98703.41
2023-02-09T00:20:59.610Z,98701.75
2023-02-09T00:23:56.437Z,98700.53
2023-02-09T00:26:46.516Z,98690.09
2023-02-09T00:29:28.839Z,98688.28
2023-02-09T00:32:17.562Z,98683.16
2023-02-09T00:34:59.818Z,98689.72
2023-02-09T00:37:49.529Z,98696.25
2023-02-09T00:40:38.558Z,98694.81
2023-02-09T00:43:26.866Z,98693.78
2023-02-09T00:46:09.657Z,98705.84
2023-02-09T00:48:51.733Z,98697.28
2023-02-09T00:51:40.546Z,98692.56
2023-02-09T00:54:29.889Z,98704.63
2023-02-09T00:57:13.593Z,98710.16
2023-02-09T01:00:01.848Z,98706.44
2023-02-09T01:02:45.505Z,98700.13
2023-02-09T01:05:27.831Z,98692.16
2023-02-09T01:08:16.536Z,98690.75
2023-02-09T01:11:05.530Z,98706.47
2023-02-09T01:13:48.991Z,98706.84
2023-02-09T01:16:39.567Z,98712.97
2023-02-09T01:19:21.980Z,98703.94
2023-02-09T01:22:11.487Z,98704.09
2023-02-09T01:24:59.760Z,98693.72
2023-02-09T01:27:42.523Z,98688.03
2023-02-09T01:30:30.770Z,98682.72
2023-02-09T01:33:13.489Z,98684.19
2023-02-09T01:36:06.464Z,98683.94
2023-02-09T01:38:55.530Z,98683.91
2023-02-09T01:41:38.446Z,98675.56
2023-02-09T01:44:27.567Z,98673.09
2023-02-09T01:47:19.215Z,98672.13
2023-02-09T01:50:08.505Z,98682.31
2023-02-09T01:52:52.456Z,98686.38
2023-02-09T01:55:47.534Z,98690.09
2023-02-09T01:58:36.565Z,98695.41
2023-02-09T02:01:19.818Z,98709.50
2023-02-09T02:04:08.541Z,98713.38
2023-02-09T02:06:50.809Z,98711.13
2023-02-09T02:09:39.593Z,98722.41
2023-02-09T02:12:26.599Z,98725.25
2023-02-09T02:15:16.643Z,98725.47
2023-02-09T02:18:32.990Z,98729.97
2023-02-09T02:21:48.577Z,98715.44
2023-02-09T02:24:58.452Z,98706.25
2023-02-09T02:28:14.556Z,98709.13
2023-02-09T02:31:30.589Z,98713.63
2023-02-09T02:34:43.081Z,98718.50
2023-02-09T02:37:37.536Z,98730.38
2023-02-09T02:40:22.867Z,98733.84
2023-02-09T02:43:33.489Z,98738.13
2023-02-09T02:46:37.066Z,98747.31
2023-02-09T02:49:34.524Z,98748.13
2023-02-09T02:52:23.908Z,98750.41
2023-02-09T02:55:14.502Z,98773.91
2023-02-09T02:58:04.236Z,98776.72
2023-02-09T03:01:01.545Z,98768.53
2023-02-09T03:03:52.854Z,98766.00
2023-02-09T03:06:35.571Z,98757.00
2023-02-09T03:09:25.809Z,98760.19
2023-02-09T03:12:26.522Z,98763.81
2023-02-09T03:15:31.843Z,98771.09
2023-02-09T03:18:30.979Z,98772.91
2023-02-09T03:21:15.526Z,98793.72
2023-02-09T03:24:14.568Z,98799.81
2023-02-09T03:28:01.497Z,98797.97
2023-02-09T03:30:52.605Z,98799.19
2023-02-09T03:33:44.419Z,98781.97
2023-02-09T03:36:39.474Z,98790.41
2023-02-09T03:39:21.804Z,98793.16
2023-02-09T03:42:10.600Z,98784.63
2023-02-09T03:44:52.871Z,98797.28
2023-02-09T03:47:41.619Z,98805.81
2023-02-09T03:50:24.885Z,98803.78
2023-02-09T03:53:16.497Z,98801.59
2023-02-09T03:55:58.741Z,98797.84
2023-02-09T03:58:47.635Z,98800.28
2023-02-09T04:01:29.792Z,98796.72
2023-02-09T04:04:18.464Z,98816.22
2023-02-09T04:07:01.795Z,98823.53
2023-02-09T04:09:50.550Z,98825.22
2023-02-09T04:12:32.854Z,98815.38
2023-02-09T04:15:21.448Z,98817.06
2023-02-09T04:18:03.720Z,98820.53
2023-02-09T04:20:52.806Z,98800.56
2023-02-09T04:23:34.777Z,98786.56
2023-02-09T04:26:23.538Z,98791.31
2023-02-09T04:29:05.894Z,98795.53
2023-02-09T04:31:54.517Z,98798.94
2023-02-09T04:34:36.718Z,98814.78
2023-02-09T04:37:25.504Z,98844.50
2023-02-09T04:40:14.447Z,98838.31
2023-02-09T04:42:56.619Z,98836.81
2023-02-09T04:45:45.535Z,98842.28
2023-02-09T04:48:35.850Z,98831.28
2023-02-09T04:51:18.534Z,98832.09
2023-02-09T04:54:00.926Z,98826.91
2023-02-09T04:56:49.503Z,98810.44
2023-02-09T04:59:37.447Z,98812.66
2023-02-09T05:02:27.615Z,98832.06
2023-02-09T05:05:16.805Z,98842.09
2023-02-09T05:07:59.559Z,98834.72
2023-02-09T05:10:47.968Z,98818.91
2023-02-09T05:13:31.486Z,98819.25
2023-02-09T05:16:27.567Z,98807.03
2023-02-09T05:19:10.230Z,98798.06
2023-02-09T05:22:00.902Z,98806.91
2023-02-09T05:24:48.749Z,98812.06
2023-02-09T05:27:30.506Z,98812.44
2023-02-09T05:30:19.490Z,98812.00
2023-02-09T05:33:01.834Z,98808.50
2023-02-09T05:35:50.463Z,98813.50
2023-02-09T05:38:32.754Z,98829.00
2023-02-09T05:41:45.495Z,98833.09
2023-02-09T05:44:27.821Z,98829.09
2023-02-09T05:47:16.560Z,98840.69
2023-02-09T05:49:59.793Z,98844.81
2023-02-09T05:52:48.510Z,98843.03
2023-02-09T05:55:30.932Z,98838.28
2023-02-09T05:58:19.492Z,98817.22
2023-02-09T06:01:01.998Z,98801.34
2023-02-09T06:03:50.483Z,98795.34
2023-02-09T06:06:32.897Z,98789.97
2023-02-09T06:09:21.539Z,98794.03
2023-02-09T06:12:03.906Z,98782.09
2023-02-09T06:14:52.493Z,98781.69
2023-02-09T06:17:34.779Z,98807.06
2023-02-09T06:20:23.429Z,98806.09
2023-02-09T06:23:08.312Z,98803.16
2023-02-09T06:26:00.841Z,98768.59
2023-02-09T06:28:43.778Z,98767.41
2023-02-09T06:31:32.581Z,98772.56
2023-02-09T06:34:14.776Z,98758.13
2023-02-09T06:37:03.486Z,98750.06
2023-02-09T06:39:45.900Z,98756.81
2023-02-09T06:42:51.431Z,98749.81
2023-02-09T06:45:33.861Z,98716.28
2023-02-09T06:48:22.454Z,98723.19
2023-02-09T06:51:04.742Z,98736.56
2023-02-09T06:53:53.538Z,98743.25
2023-02-09T06:56:36.837Z,98752.81
2023-02-09T06:59:25.514Z,98765.50
2023-02-09T07:02:14.449Z,98752.47
2023-02-09T07:05:02.788Z,98734.97
2023-02-09T07:07:45.439Z,98719.13
2023-02-09T07:10:34.701Z,98711.97
2023-02-09T07:13:17.528Z,98697.84
2023-02-09T07:16:08.856Z,98714.28
2023-02-09T07:18:51.504Z,98709.66
2023-02-09T07:21:39.822Z,98697.13
2023-02-09T07:24:28.539Z,98689.25
2023-02-09T07:27:12.762Z,98688.38
2023-02-09T07:30:01.814Z,98669.66
2023-02-09T07:32:48.776Z,98663.84
2023-02-09T07:35:37.542Z,98670.34
2023-02-09T07:38:20.756Z,98673.50
2023-02-09T07:41:11.470Z,98652.03
2023-02-09T07:43:54.786Z,98645.09
2023-02-09T07:46:43.575Z,98640.00
2023-02-09T07:49:25.773Z,98622.38
2023-02-09T07:52:14.418Z,98596.16
2023-02-09T07:54:57.722Z,98608.81
2023-02-09T07:57:46.488Z,98619.34
2023-02-09T08:00:28.705Z,98626.16
2023-02-09T08:03:17.488Z,98621.59
2023-02-09T08:06:08.751Z,98610.69
2023-02-09T08:08:59.419Z,98602.75
2023-02-09T08:11:46.817Z,98599.09
2023-02-09T08:14:44.478Z,98601.34
2023-02-09T08:17:37.427Z,98612.41
2023-02-09T08:20:22.984Z,98597.44
2023-02-09T08:23:20.498Z,98604.31
2023-02-09T08:26:14.790Z,98602.19
2023-02-09T08:28:57.547Z,98613.59
2023-02-09T08:31:46.267Z,98611.66
2023-02-09T08:34:29.427Z,98592.69
2023-02-09T08:37:17.856Z,98592.94
2023-02-09T08:39:59.580Z,98573.28
2023-02-09T08:42:47.772Z,98578.97
2023-02-09T08:45:30.604Z,98580.63
2023-02-09T08:48:18.729Z,98587.63
2023-02-09T08:51:00.464Z,98586.75
2023-02-09T08:53:52.237Z,98567.59
2023-02-09T08:56:34.776Z,98555.94
2023-02-09T08:59:23.466Z,98553.81
2023-02-09T09:02:05.762Z,98566.03
2023-02-09T09:04:54.408Z,98561.38
2023-02-09T09:07:43.443Z,98550.59
2023-02-09T09:10:31.756Z,98539.72
2023-02-09T09:13:14.404Z,98535.41
2023-02-09T09:16:05.219Z,98522.66
2023-02-09T09:18:47.822Z,98523.19
2023-02-09T09:21:36.536Z,98527.44
2023-02-09T09:24:18.722Z,98539.94
2023-02-09T09:27:07.475Z,98533.91
2023-02-09T09:29:56.473Z,98530.16
2023-02-09T09:32:44.785Z,98524.25
2023-02-09T09:35:26.527Z,98513.78
2023-02-09T09:38:14.766Z,98499.88
2023-02-09T09:40:57.610Z,98496.28
2023-02-09T09:44:02.319Z,98495.66
2023-02-09T09:46:59.424Z,98500.53
2023-02-09T09:49:45.877Z,98514.03
2023-02-09T09:52:48.506Z,98502.41
2023-02-09T09:55:37.741Z,98499.41
2023-02-09T09:58:28.403Z,98492.28
2023-02-09T10:01:10.770Z,98502.41
2023-02-09T10:03:59.420Z,98494.06
2023-02-09T10:06:48.468Z,98479.28
2023-02-09T10:09:53.743Z,98490.34
2023-02-09T10:12:57.441Z,98494.25
2023-02-09T10:15:46.994Z,98490.88
2023-02-09T10:18:33.530Z,98482.53
2023-02-09T10:21:24.742Z,98486.56
2023-02-09T10:24:37.392Z,98484.16
2023-02-09T10:27:29.423Z,98484.97
2023-02-09T10:30:43.499Z,98473.38
2023-02-09T10:33:32.849Z,98484.34
2023-02-09T10:36:30.975Z,98476.50
2023-02-09T10:39:33.857Z,98475.13
2023-02-09T10:42:32.514Z,98467.78
2023-02-09T10:45:27.179Z,98453.34
2023-02-09T10:48:31.451Z,98450.97
2023-02-09T10:51:34.618Z,98451.03
2023-02-09T10:54:29.512Z,98456.16
2023-02-09T10:57:45.728Z,98442.38
2023-02-09T11:00:27.450Z,98444.53
2023-02-09T11:03:31.290Z,98431.34
2023-02-09T11:06:27.472Z,98437.47
2023-02-09T11:09:24.363Z,98441.91
2023-02-09T11:12:14.443Z,98428.94
2023-02-09T11:15:03.884Z,98426.88
2023-02-09T11:18:03.451Z,98425.84
2023-02-09T11:21:09.541Z,98431.50
2023-02-09T11:24:41.735Z,98426.34
2023-02-09T11:27:33.472Z,98394.53
2023-02-09T11:30:36.758Z,98404.50
2023-02-09T11:33:30.451Z,98419.72
2023-02-09T11:37:00.396Z,98407.34
2023-02-09T11:40:08.888Z,98398.44
2023-02-09T11:43:07.465Z,98370.44
2023-02-09T11:45:52.564Z,98373.00
2023-02-09T11:48:46.498Z,98397.00
2023-02-09T11:51:35.841Z,98416.00
2023-02-09T11:54:41.494Z,98398.75
2023-02-09T11:57:55.707Z,98392.03
2023-02-09T12:01:14.656Z,98400.13
2023-02-09T12:04:24.339Z,98399.06
2023-02-09T12:07:36.496Z,98398.81
2023-02-09T12:10:44.097Z,98405.44
2023-02-09T12:14:01.447Z,98419.75
2023-02-09T12:16:52.475Z,98454.28
2023-02-09T12:19:56.435Z,98399.38
2023-02-09T12:22:49.899Z,98412.03
2023-02-09T12:25:51.269Z,98419.50
2023-02-09T12:28:39.777Z,98408.22
2023-02-09T12:32:06.621Z,98449.59
2023-02-09T12:34:57.754Z,98474.75
2023-02-09T12:37:40.471Z,98435.69
2023-02-09T12:40:29.731Z,98435.38
2023-02-09T12:43:32.458Z,98444.16
2023-02-09T12:46:39.660Z,98425.34
2023-02-09T12:49:22.488Z,98440.94
2023-02-09T12:52:10.786Z,98458.16
2023-02-09T12:55:04.471Z,98460.47
2023-02-09T12:57:51.961Z,98471.19
2023-02-09T13:00:46.475Z,98457.06
2023-02-09T13:03:37.836Z,98443.25
2023-02-09T13:06:47.448Z,98427.38
2023-02-09T13:09:44.900Z,98437.34
2023-02-09T13:12:36.560Z,98433.53
2023-02-09T13:15:27.916Z,98422.56
2023-02-09T13:18:23.486Z,98412.84
2023-02-09T13:21:29.953Z,98418.03
2023-02-09T13:24:31.409Z,98419.88
2023-02-09T13:27:28.933Z,98429.03
2023-02-09T13:30:11.604Z,98451.97
2023-02-09T13:33:14.905Z,98459.91
2023-02-09T13:36:24.650Z,98468.53
2023-02-09T13:39:26.988Z,98458.09
2023-02-09T13:42:09.605Z,98460.34
2023-02-09T13:44:59.797Z,98463.41
2023-02-09T13:47:42.494Z,98462.09
2023-02-09T13:50:34.485Z,98465.28
2023-02-09T13:53:18.572Z,98450.72
2023-02-09T13:56:08.974Z,98447.69
2023-02-09T13:58:51.490Z,98447.69
2023-02-09T14:01:47.020Z,98441.06
2023-02-09T14:04:33.380Z,98448.53
2023-02-09T14:07:23.057Z,98445.19
2023-02-09T14:10:24.451Z,98448.19
2023-02-09T14:13:23.881Z,98446.66
2023-02-09T14:16:17.569Z,98452.09
2023-02-09T14:19:07.768Z,98458.16
2023-02-09T14:21:50.443Z,98466.81
2023-02-09T14:24:58.497Z,98467.91
2023-02-09T14:27:48.945Z,98465.56
2023-02-09T14:30:34.633Z,98459.06
2023-02-09T14:33:32.414Z,98458.72
2023-02-09T14:36:30.422Z,98459.69
2023-02-09T14:39:28.442Z,98462.38
2023-02-09T14:42:19.104Z,98460.03
2023-02-09T14:45:33.390Z,98468.41
2023-02-09T14:48:24.956Z,98469.88
2023-02-09T14:51:24.537Z,98470.25
2023-02-09T14:54:16.496Z,98470.06
2023-02-09T14:57:06.862Z,98482.47
2023-02-09T14:59:49.359Z,98474.78
2023-02-09T15:02:39.740Z,98493.88
2023-02-09T15:05:22.495Z,98473.75
2023-02-09T15:08:12.753Z,98474.69
2023-02-09T15:11:01.604Z,98475.66
2023-02-09T15:13:51.141Z,98478.22
2023-02-09T15:16:34.474Z,98484.72
2023-02-09T15:19:20.962Z,98488.41
2023-02-09T15:22:09.509Z,98490.50
2023-02-09T15:25:06.334Z,98484.00
2023-02-09T15:28:01.445Z,98489.81
2023-02-09T15:30:44.063Z,98488.66
2023-02-09T15:33:34.467Z,98486.59
2023-02-09T15:36:25.838Z,98498.78
2023-02-09T15:39:23.507Z,98500.53
2023-02-09T15:42:24.239Z,98493.75
2023-02-09T15:45:49.439Z,98487.50
2023-02-09T15:48:33.409Z,98475.16
2023-02-09T15:51:23.477Z,98516.63
2023-02-09T15:54:07.705Z,98497.00
2023-02-09T15:56:56.749Z,98510.81
2023-02-09T15:59:38.744Z,98500.41
2023-02-09T16:02:27.433Z,98500.84
2023-02-09T16:05:09.768Z,98512.13
2023-02-09T16:08:00.502Z,98504.44
2023-02-09T16:10:42.720Z,98505.81
2023-02-09T16:13:31.427Z,98499.09
2023-02-09T16:16:17.324Z,98503.38
2023-02-09T16:19:06.418Z,98494.31
2023-02-09T16:21:51.697Z,98485.50
2023-02-09T16:24:46.417Z,98486.88
2023-02-09T16:27:33.777Z,98495.44
2023-02-09T16:30:31.118Z,98499.28
2023-02-09T16:33:13.869Z,98496.34
2023-02-09T16:36:10.457Z,98497.59
2023-02-09T16:38:52.851Z,98488.44
2023-02-09T16:42:00.470Z,98494.94
2023-02-09T16:44:42.912Z,98495.88
2023-02-09T16:47:35.429Z,98490.63
2023-02-09T16:50:48.209Z,98489.81
2023-02-09T16:53:43.453Z,98485.63
2023-02-09T16:56:28.643Z,98478.31
2023-02-09T16:59:21.454Z,98489.25
2023-02-09T17:02:03.933Z,98479.75
2023-02-09T17:04:54.420Z,98480.69
2023-02-09T17:07:53.980Z,98483.44
2023-02-09T17:10:45.563Z,98469.19
2023-02-09T17:13:29.906Z,98471.75
2023-02-09T17:16:43.490Z,98454.84
2023-02-09T17:19:29.297Z,98457.31
2023-02-09T17:22:22.374Z,98461.81
2023-02-09T17:25:18.275Z,98453.72
2023-02-09T17:28:08.483Z,98439.06
2023-02-09T17:30:51.767Z,98437.34
2023-02-09T17:33:43.526Z,98447.19
2023-02-09T17:36:28.940Z,98443.50
2023-02-09T17:39:20.416Z,98430.69
2023-02-09T17:42:02.888Z,98434.56
2023-02-09T17:44:51.504Z,98437.94
2023-02-09T17:47:33.891Z,98442.19
2023-02-09T17:50:22.534Z,98431.88
2023-02-09T17:53:05.899Z,98424.06
2023-02-09T17:55:55.472Z,98413.97
2023-02-09T17:58:37.900Z,98420.97
2023-02-09T18:01:37.555Z,98408.38
2023-02-09T18:04:29.858Z,98417.31
2023-02-09T18:07:18.549Z,98408.28
2023-02-09T18:10:00.864Z,98408.16
2023-02-09T18:12:50.401Z,98419.88
2023-02-09T18:15:41.570Z,98419.44
2023-02-09T18:18:30.422Z,98419.44
2023-02-09T18:21:12.940Z,98415.69
2023-02-09T18:24:01.425Z,98433.69
2023-02-09T18:26:52.150Z,98418.03
2023-02-09T18:29:37.793Z,98417.31
2023-02-09T18:32:27.421Z,98428.00
2023-02-09T18:35:10.514Z,98409.78
2023-02-09T18:37:53.454Z,98413.59
2023-02-09T18:40:43.398Z,98414.09
2023-02-09T18:43:32.774Z,98416.75
2023-02-09T18:46:15.540Z,98410.00
2023-02-09T18:49:04.896Z,98415.47
2023-02-09T18:51:46.474Z,98414.31
2023-02-09T18:54:35.922Z,98423.50
2023-02-09T18:57:18.406Z,98419.06
2023-02-09T19:00:11.892Z,98426.19
2023-02-09T19:02:54.453Z,98427.69
2023-02-09T19:05:43.811Z,98437.44
2023-02-09T19:08:26.416Z,98438.63
2023-02-09T19:11:15.859Z,98444.78
2023-02-09T19:14:16.348Z,98442.56
2023-02-09T19:17:05.753Z,98437.00
2023-02-09T19:19:48.399Z,98424.69
2023-02-09T19:22:37.860Z,98426.66
2023-02-09T19:25:34.415Z,98434.69
2023-02-09T19:28:23.778Z,98425.38
2023-02-09T19:31:06.405Z,98432.22
2023-02-09T19:33:54.751Z,98436.06
2023-02-09T19:36:37.394Z,98442.56
2023-02-09T19:39:26.965Z,98442.78
2023-02-09T19:42:10.688Z,98443.47
2023-02-09T19:45:01.746Z,98438.38
2023-02-09T19:47:46.398Z,98441.28
2023-02-09T19:50:37.615Z,98441.50
2023-02-09T19:53:21.415Z,98425.84
2023-02-09T19:56:03.682Z,98425.25
2023-02-09T19:58:52.454Z,98428.16
2023-02-09T20:01:41.695Z,98432.03
2023-02-09T20:04:24.392Z,98431.69
2023-02-09T20:07:06.858Z,98427.19
2023-02-09T20:09:56.388Z,98427.66
2023-02-09T20:15:32.897Z,98431.13
2023-02-09T20:18:22.392Z,98431.94
2023-02-09T20:21:04.828Z,98434.03
2023-02-09T20:23:53.406Z,98430.75
2023-02-09T20:26:41.804Z,98430.53
2023-02-09T20:29:24.366Z,98435.28
2023-02-09T20:32:13.825Z,98430.53
2023-02-09T20:34:55.381Z,98443.31
2023-02-09T20:37:37.642Z,98427.50
2023-02-09T20:40:29.327Z,98430.28
2023-02-09T20:43:32.242Z,98412.88
2023-02-09T20:46:41.446Z,98406.59
2023-02-09T20:49:33.692Z,98426.66
2023-02-09T20:52:15.792Z,98422.59
2023-02-09T20:55:04.361Z,98420.88
2023-02-09T20:57:46.658Z,98406.47
2023-02-09T21:00:35.467Z,98400.44
2023-02-09T21:03:20.259Z,98406.25
2023-02-09T21:06:09.392Z,98393.75
2023-02-09T21:08:53.007Z,98392.91
2023-02-09T21:11:44.379Z,98405.66
2023-02-09T21:14:41.856Z,98401.25
2023-02-09T21:17:24.772Z,98412.16
2023-02-09T21:20:14.434Z,98407.06
2023-02-09T21:23:03.741Z,98400.31
2023-02-09T21:25:59.401Z,98411.19
2023-02-09T21:28:53.048Z,98411.19
2023-02-09T21:31:36.571Z,98412.41
2023-02-09T21:34:18.770Z,98407.50
2023-02-09T21:37:07.425Z,98417.03
2023-02-09T21:39:56.274Z,98421.66
2023-02-09T21:42:45.463Z,98422.94
2023-02-09T21:45:33.687Z,98405.19
2023-02-09T21:48:16.414Z,98415.28
2023-02-09T21:51:05.216Z,98399.75
2023-02-09T21:53:54.313Z,98393.94
2023-02-09T21:56:43.382Z,98397.88
2023-02-09T21:59:25.728Z,98400.66
2023-02-09T22:02:15.321Z,98409.34
2023-02-09T22:05:04.399Z,98398.59
2023-02-09T22:07:54.186Z,98415.66
2023-02-09T22:10:36.385Z,98430.53
2023-02-09T22:13:25.632Z,98416.78
2023-02-09T22:16:08.347Z,98403.81
2023-02-09T22:18:57.671Z,98405.44
2023-02-09T22:21:40.397Z,98408.78
2023-02-09T22:24:31.066Z,98410.75
2023-02-09T22:27:20.390Z,98412.16
2023-02-09T22:30:02.656Z,98423.63
2023-02-09T22:32:51.371Z,98431.41
2023-02-09T22:35:33.612Z,98433.84
2023-02-09T22:38:22.461Z,98423.63
2023-02-09T22:41:04.740Z,98415.97
2023-02-09T22:43:53.389Z,98415.97
2023-02-09T22:46:46.365Z,98429.84
2023-02-09T22:49:28.587Z,98429.97
2023-02-09T22:52:17.383Z,98443.81
2023-02-09T22:55:06.663Z,98447.50
2023-02-09T22:57:49.413Z,98441.09
2023-02-09T23:00:37.658Z,98439.56
2023-02-09T23:03:20.364Z,98445.38
2023-02-09T23:06:14.628Z,98451.78
2023-02-09T23:09:00.774Z,98439.13
2023-02-09T23:11:49.354Z,98428.22
2023-02-09T23:14:31.639Z,98426.84
2023-02-09T23:17:20.420Z,98434.97
2023-02-09T23:20:02.610Z,98433.00
2023-02-09T23:22:51.382Z,98436.59
2023-02-09T23:25:47.403Z,98429.00
2023-02-09T23:28:36.469Z,98413.56
2023-02-09T23:31:28.403Z,98424.22
2023-02-09T23:34:17.927Z,98413.13
2023-02-09T23:37:13.775Z,98411.16
2023-02-09T23:40:05.708Z,98411.50
2023-02-09T23:42:54.476Z,98430.97
2023-02-09T23:45:42.667Z,98434.16
2023-02-09T23:48:25.414Z,98431.50
2023-02-09T23:51:16.874Z,98423.63
2023-02-09T23:53:59.388Z,98425.47
2023-02-09T23:56:48.652Z,98424.88
2023-02-09T23:59:31.383Z,98430.56
